Airfield :
LOGIN :

Register | Disclaimer

   EN    FR    IT 

 










Legend :    VFR   Marginal VFR   IFR   Intensive IFR   Very Intensive IFR
Visi :
Ceiling :
>= 8 km
>= 3000ft
5 to 8 km
1000 to 3000 ft
1500m to 5 km
500 to 1000 ft
800 to 1500m
200 to 500 ft
< 800m
< 200 ft
Symbols :   Thunderstorms  Fog  Heavy snow  Heavy precipitations  Wind > 20 kt
SIGMETs :     Misc.  Thunderstorms  Icing  Turbulence  Mountain Waves  Volcanic Ashes







- Airport Elevation : 436 ft
- IATA code : ANG
- Download approach charts


LFBU - Angoulême Brie Champniers

CURRENT METAR :
  • 141900Z AUTO 30009KT CAVOK 22/13 Q1021 NOSIG

EXPIRED METARs :
  • 141830Z AUTO 29013KT CAVOK 23/13 Q1021 NOSIG
  • 141800Z AUTO 32010KT CAVOK 24/13 Q1020 NOSIG
  • 141730Z AUTO 30010KT CAVOK 25/13 Q1020 NOSIG
  • 141700Z AUTO 29011KT CAVOK 25/13 Q1020 NOSIG
  • 141630Z AUTO 29011KT 250V320 CAVOK 26/13 Q1020 NOSIG
  • 141600Z AUTO 29011KT 260V330 CAVOK 27/13 Q1020 NOSIG

TAF TAF LFBU
Valid from the 14 at 18:00 until the 15 at 18:00 UTC


141700Z 1418/1518 32010KT CAVOK
FM150000 03005KT CAVOK
PROB30
TEMPO 1505/1507 BKN010
No reported NOTAMs for that airfield.



MET'MAP, your aeronautical weather chart ! - Copyright ORBIFLY December 2007 - Disclaimer

ORBIFLY MET'MAP TEAM :

Programming & Development : Alexandra Zaïnal
Concept & Development : Baudouin d'Aumeries
Co-Development & Prog : Marc-Olivier Méhu
Technical & hardware support : Manuel Goepfert

Contact : metmap@orbifly.com




SOURCES & CREDITS :

   NOAA